ADDS METAR Data INFO
IDs: Format: Raw Decoded Include TAF

Data at: 0921 UTC 13 Dec 2017

KELD 130853Z AUTO 00000KT 10SM CLR M02/M04 A3015 RMK AO2 SLP209 T10171039 56013
KELD 130753Z AUTO 00000KT 10SM CLR M01/M04 A3016 RMK AO2 SLP214 T10111044
KELD 130653Z AUTO 00000KT 10SM CLR M02/M04 A3017 RMK AO2 SLP215 T10171039
KELD 130553Z AUTO 00000KT 10SM CLR 00/M04 A3019 RMK AO2 SLP222 T00001039 10061 21011 401391011 58003
KELD 130453Z AUTO 00000KT 10SM CLR M01/M03 A3020 RMK AO2 SLP225 T10061033
KELD 130353Z AUTO 28004KT 10SM CLR 01/M03 A3019 RMK AO2 SLP224 T00111033
KELD 130253Z AUTO 24004KT 10SM CLR 02/M03 A3020 RMK AO2 SLP225 T00171033 56004
KELD 130153Z AUTO 00000KT 10SM CLR 03/M03 A3020 RMK AO2 SLP226 T00281028
KELD 130053Z AUTO 22003KT 10SM CLR 04/M03 A3020 RMK AO2 SLP226 T00441028
KELD 122353Z AUTO 27003KT 10SM CLR 06/M03 A3021 RMK AO2 SLP229 T00611028 10139 20056 55002
KELD 122253Z AUTO 00000KT 10SM CLR 09/M04 A3019 RMK AO2 SLP223 T00891044
KELD 122153Z AUTO 27006KT 10SM CLR 13/M07 A3020 RMK AO2 SLP226 T01281072
KELD 122053Z AUTO 32006KT 10SM CLR 13/M06 A3021 RMK AO2 SLP230 T01331061 56021
KELD 121953Z AUTO 30007KT 10SM CLR 13/M06 A3023 RMK AO2 SLP235 T01331056
KELD 121853Z AUTO 31008KT 270V330 10SM CLR 12/M03 A3025 RMK AO2 SLP241 T01221033
KELD 121753Z AUTO 31007KT 10SM CLR 12/M03 A3028 RMK AO2 SLP251 T01171028 10122 20050 58001
KELD 121653Z AUTO 35009KT 10SM CLR 11/M02 A3029 RMK AO2 SLP256 T01061017
KELD 121553Z AUTO 33008KT 10SM CLR 10/00 A3030 RMK AO2 SLP261 T01000000
KELD 121453Z AUTO 32012KT 10SM CLR 09/01 A3028 RMK AO2 SLP252 T00890006 51026
KELD 121353Z AUTO 33006KT 10SM CLR 07/00 A3025 RMK AO2 SLP243 T00670000
KELD 121253Z AUTO 32008KT 10SM CLR 05/M01 A3023 RMK AO2 SLP236 T00501006
KELD 121153Z AUTO 32006KT 10SM CLR 07/M01 A3020 RMK AO2 SLP226 T00721006 10106 20067 51021
KELD 121053Z AUTO 31008KT 10SM CLR 09/M01 A3018 RMK AO2 SLP219 T00891011
KELD 120953Z AUTO 32009KT 10SM CLR 09/M02 A3016 RMK AO2 SLP212 T00941017
KELD 120853Z AUTO 32009KT 10SM CLR 10/M03 A3014 RMK AO2 SLP204 T01001028 53016
KELD 120753Z AUTO 31008KT 10SM CLR 11/M04 A3012 RMK AO2 SLP198 T01061039
KELD 120653Z AUTO 31007KT 10SM CLR 11/M03 A3011 RMK AO2 SLP193 T01061033
KELD 120553Z AUTO 28004KT 10SM CLR 09/M02 A3009 RMK AO2 SLP188 T00941022 10144 20094 402281006 53020
KELD 120453Z AUTO 28005KT 10SM CLR 13/M03 A3007 RMK AO2 SLP181 T01281028
KELD 120353Z AUTO 26004KT 10SM CLR 13/M02 A3005 RMK AO2 SLP174 T01331022
KELD 120253Z AUTO 23005KT 10SM CLR 11/M01 A3003 RMK AO2 SLP169 T01111006 53003
KELD 120153Z AUTO 22008KT 10SM CLR 13/M01 A3003 RMK AO2 SLP169 T01331006
KELD 120053Z AUTO 22005KT 10SM CLR 13/00 A3003 RMK AO2 SLP168 T01330000
KELD 112353Z AUTO 21004KT 10SM CLR 14/02 A3002 RMK AO2 SLP167 T01390022 10228 20139 55006
KELD 112253Z AUTO 21006KT 10SM CLR 18/M01 A3002 RMK AO2 SLP165 T01781006
KELD 112153Z AUTO 20007KT 10SM CLR 22/M02 A3003 RMK AO2 SLP166 T02221017